55°F Temp
50°F Dewpoint
82% Humidity
Temperature
15 MPH
24 KM/H
13 KTS
300°
West North
West

Wind Speed
Partly Cloudy
Conditions
Pressure 1012.22 (hPa) - 29.89 (in)
Visibility 10.0 (mi) - 16.1 (km)

Current Conditions
KSJC
Location 9(mi)
Metar :KSJC 220553Z 30013G18KT 10SM FEW006 SCT028 BKN055 13/10 A2989 RMK AO2 SLP121 60000 T01280100 10156 20122 53002
Tue 21st May 21:53 pm

Airport
  Metar Aviation API Data Provided by https://www.checkwx.com/ PHP scripts by weather34.com ©2019